Flight Track Log - Related Links

Times and Time Zones

All times are in EDT time to prevent confusion due to time zone crossing. See the N25572 flight status page for this flight to view local times or setup timezone preferences in your user account.

Time Position Orientation Groundspeed Altitude Reporting Facility
EDT Latitude Longitude Course Direction KTS MPH feet Rate Location/Type
Tue 06:44:00 PM 27.4837 -80.4037 341° North  Level Estimated
Tue 06:45:00 PM 27.5187 -80.4173 341° North  Level Estimated
Tue 06:46:00 PM 27.5536 -80.4309 341° North  Level Estimated
Tue 06:47:00 PM 27.5886 -80.4444 341° North  Level Estimated
Tue 06:48:00 PM 27.6236 -80.4580 341° North  Level Estimated
Tue 06:49:00 PM 27.6585 -80.4716 341° North  Level Estimated
Tue 06:50:00 PM 27.6935 -80.4852 341° North  Level Estimated
Tue 06:51:00 PM 27.7285 -80.4989 341° North  Level Estimated
Tue 06:52:00 PM 27.7634 -80.5125 341° North  Level Estimated
Tue 06:53:00 PM 27.7984 -80.5261 341° North  Level Estimated
Tue 06:54:00 PM 27.8333 -80.5398 341° North  Level Estimated
Tue 06:54:30 PM 27.1617 -80.1928 341° North 99 114 3,500  Level Miami Center
Tue 06:55:00 PM 27.8683 -80.5534 341° North  Level Estimated
Tue 06:55:30 PM 27.1908 -80.2053 339° North 99 114 3,600  Level Miami Center
Tue 06:56:00 PM 27.9032 -80.5671 341° North  Level Estimated
Tue 06:56:30 PM 27.2175 -80.2153 342° North 110 127 3,600  Level Miami Center
Tue 06:57:00 PM 27.9382 -80.5807 341° North  Level Estimated
Tue 06:57:30 PM 27.2467 -80.2208 350° North 110 127 3,600  Level Miami Center
Tue 06:58:00 PM 27.9731 -80.5944 341° North  Level Estimated
Tue 06:58:30 PM 27.2694 -80.2333 334° Northwest 105 121 3,500  Level Miami Center
Tue 06:59:00 PM 28.0081 -80.6081 341° North  Level Estimated
Tue 06:59:30 PM 27.2919 -80.2503 326° Northwest 105 121 3,500  Level Miami Center
Tue 07:00:30 PM 27.3208 -80.2650 336° Northwest 105 121 3,500  Level Miami Center
Tue 07:01:30 PM 27.3478 -80.2775 338° Northwest 100 115 3,500  Level Miami Center
Tue 07:02:30 PM 27.3744 -80.2900 337° Northwest 100 115 3,500  Level Miami Center
Tue 07:03:30 PM 27.3994 -80.2978 345° North 100 115 3,500  Level Miami Center
Tue 07:04:30 PM 27.4264 -80.3103 338° Northwest 100 115 3,500  Level Miami Center
Tue 07:05:30 PM 27.4553 -80.3206 342° North 100 115 3,500 50 Level Miami Center
Tue 07:06:30 PM 27.4822 -80.3261 350° North 95 109 3,600  Climbing Miami Center
Tue 07:07:30 PM 27.5050 -80.3386 334° Northwest 95 109 3,500 -50 Descending Miami Center
Tue 07:08:30 PM 27.5297 -80.3508 336° Northwest 100 115 3,500  Level Miami Center
Tue 07:09:30 PM 27.5586 -80.3683 332° Northwest 100 115 3,500  Level Miami Center
Tue 07:10:30 PM 27.5856 -80.3736 350° North 95 109 3,500  Level Miami Center
Tue 07:11:30 PM 27.6144 -80.3817 346° North 95 109 3,500  Level Miami Center
Tue 07:12:30 PM 27.6394 -80.3869 349° North 95 109 3,500  Level Miami Center
Tue 07:13:30 PM 27.6683 -80.3972 343° North 95 109 3,500  Level Miami Center
Tue 07:14:30 PM 27.6931 -80.4122 332° Northwest 95 109 3,500  Level Miami Center
Tue 07:15:30 PM 27.7178 -80.4269 332° Northwest 95 109 3,500  Level Miami Center
Tue 07:17:28 PM 27.7667 -80.4500 337° Northwest 102 117 3,500  Level Orlando TRACON
Tue 07:18:28 PM 27.8000 -80.4667 336° Northwest 102 117 3,500  Level Orlando TRACON
Tue 07:19:17 PM 27.8167 -80.4667 360° North 98 113 3,500  Level Orlando TRACON
Tue 07:20:16 PM 27.8333 -80.4833 319° Northwest 103 119 3,500  Level Orlando TRACON
Tue 07:21:17 PM 27.8667 -80.5000 336° Northwest 102 117 3,500  Level Orlando TRACON
Tue 07:22:22 PM 27.9000 -80.5167 336° Northwest 103 119 3,500 -48 Level Orlando TRACON
Tue 07:23:23 PM 27.9167 -80.5333 319° Northwest 101 116 3,400 -209 Descending Orlando TRACON
Tue 07:24:17 PM 27.9500 -80.5500 336° Northwest 109 125 3,100 -421 Descending Orlando TRACON
Tue 07:25:17 PM 27.9667 -80.5667 319° Northwest 114 131 2,600 -350 Descending Orlando TRACON
Tue 07:26:17 PM 28.0000 -80.5833 336° Northwest 110 127 2,400 -200 Descending Orlando TRACON
Tue 07:27:17 PM 28.0167 -80.6000 319° Northwest 110 127 2,200 -286 Descending Orlando TRACON
Tue 07:28:23 PM 28.0500 -80.6167 336° Northwest 113 130 1,800 -550 Descending Orlando TRACON
Tue 07:29:17 PM 28.0833 -80.6333 336° Northwest 118 136 1,100 -444 Descending Orlando TRACON
Tue 07:30:11 PM 28.0833 -80.6667 270° West 101 116 1,000 -143 Descending Orlando TRACON
Tue 07:31:23 PM 28.1000 -80.6833 319° Northwest 101 116 800 -227 Descending Orlando TRACON
Tue 07:32:23 PM 28.1000 -80.6833 319° Northwest 55 63 500 -300 Descending Orlando TRACON

Login

Don't have an account? Register now (free) for customized features, flight alerts, and more!